Time;durP1;ratioP1;P1;durP2;ratioP2;P2;SDS_P1;SDS_P2;PMS_P1;PMS_P2;Temp;Humidity;BMP_temperature;BMP_pressure;BME280_temperature;BME280_humidity;BME280_pressure;Samples;Min_cycle;Max_cycle;Signal;HPM_P1;HPM_P2
2021/01/07 00:00:10;;;;;;;12.38;2.58;;;22.10;24.30;;;;;;5110501;28;20154;-61
2021/01/07 00:02:37;;;;;;;11.65;3.63;;;22.00;24.60;;;;;;5091184;28;20423;-60
2021/01/07 00:05:06;;;;;;;15.02;4.75;;;22.00;24.80;;;;;;5108435;28;20080;-57
2021/01/07 00:07:32;;;;;;;13.45;4.70;;;21.90;24.60;;;;;;5106751;28;20515;-60
2021/01/07 00:09:59;;;;;;;11.65;3.40;;;21.80;24.60;;;;;;5105300;28;20067;-63
2021/01/07 00:12:27;;;;;;;19.00;6.97;;;21.70;24.70;;;;;;5105923;28;20079;-61
2021/01/07 00:14:54;;;;;;;17.92;6.45;;;21.60;24.70;;;;;;5108161;28;20068;-60
2021/01/07 00:17:20;;;;;;;17.92;6.78;;;21.50;25.10;;;;;;5109576;28;20571;-59
2021/01/07 00:19:47;;;;;;;14.27;7.45;;;21.40;25.30;;;;;;5108225;28;20083;-61
2021/01/07 00:22:13;;;;;;;20.92;7.72;;;21.20;25.70;;;;;;5106557;28;20072;-63
2021/01/07 00:24:40;;;;;;;17.60;7.05;;;21.10;25.60;;;;;;5107341;28;20421;-60
2021/01/07 00:27:06;;;;;;;22.15;7.15;;;21.00;25.80;;;;;;5106009;28;20080;-61
2021/01/07 00:29:33;;;;;;;26.90;8.20;;;20.90;25.90;;;;;;5108230;28;20214;-61
2021/01/07 00:32:00;;;;;;;23.50;7.85;;;20.80;26.20;;;;;;5109352;28;20456;-58
2021/01/07 00:34:27;;;;;;;23.05;6.93;;;20.70;26.90;;;;;;5090362;28;20191;-60
2021/01/07 00:36:55;;;;;;;25.55;6.82;;;20.50;27.10;;;;;;5089561;28;20112;-61
2021/01/07 00:39:22;;;;;;;22.70;4.93;;;20.40;27.10;;;;;;5093348;28;20072;-61
2021/01/07 00:41:57;;;;;;;18.98;4.65;;;20.30;28.00;;;;;;5089311;28;20427;-60
2021/01/07 00:44:24;;;;;;;27.13;4.90;;;20.20;28.40;;;;;;5088619;28;20079;-61
2021/01/07 00:46:54;;;;;;;23.67;5.13;;;20.00;28.40;;;;;;5089656;28;20164;-62
2021/01/07 00:49:21;;;;;;;19.27;4.57;;;19.80;28.80;;;;;;5087983;28;20398;-60
2021/01/07 00:51:47;;;;;;;26.38;5.80;;;19.70;28.90;;;;;;5088304;28;20080;-60
2021/01/07 00:54:14;;;;;;;31.13;6.40;;;19.50;29.20;;;;;;5088891;28;20138;-61
2021/01/07 00:56:41;;;;;;;26.40;6.78;;;19.40;29.70;;;;;;5089530;28;20104;-61
2021/01/07 00:59:09;;;;;;;33.13;5.53;;;19.20;30.80;;;;;;5071852;28;20586;-60
2021/01/07 01:01:45;;;;;;;24.42;5.82;;;19.10;30.70;;;;;;5072024;28;20079;-60
2021/01/07 01:04:14;;;;;;;25.83;5.13;;;19.00;30.80;;;;;;5071483;28;20206;-61
2021/01/07 01:06:41;;;;;;;28.23;5.10;;;18.90;30.80;;;;;;5090912;28;20087;-61
2021/01/07 01:09:10;;;;;;;21.58;5.22;;;18.70;31.00;;;;;;5088354;28;20073;-60
2021/01/07 01:11:40;;;;;;;34.97;5.25;;;18.50;31.30;;;;;;5089418;28;20497;-60
2021/01/07 01:14:07;;;;;;;36.25;5.88;;;18.40;31.90;;;;;;5089249;28;20069;-61
2021/01/07 01:16:34;;;;;;;39.40;5.88;;;18.20;32.40;;;;;;5072743;28;20089;-61
2021/01/07 01:19:02;;;;;;;37.00;5.78;;;18.10;32.60;;;;;;5076496;28;20064;-58
2021/01/07 01:21:33;;;;;;;53.42;7.35;;;18.00;33.10;;;;;;5076970;28;20125;-60
2021/01/07 01:24:00;;;;;;;42.47;7.35;;;17.90;33.50;;;;;;5087888;28;20100;-60
2021/01/07 01:26:27;;;;;;;34.55;6.60;;;17.80;34.40;;;;;;5072544;28;20162;-59
2021/01/07 01:28:54;;;;;;;48.00;8.63;;;17.70;34.50;;;;;;5087649;28;20069;-61
2021/01/07 01:31:20;;;;;;;;;;;17.60;34.40;;;;;;5088746;28;20113;-61
2021/01/07 01:33:46;;;;;;;57.53;10.05;;;17.50;34.70;;;;;;5091572;28;19984;-60
2021/01/07 01:36:12;;;;;;;;;;;17.40;35.10;;;;;;5091031;28;20174;-61
2021/01/07 01:38:39;;;;;;;65.68;10.15;;;17.30;35.10;;;;;;5086620;28;19965;-61
2021/01/07 01:41:06;;;;;;;;;;;17.10;35.60;;;;;;5079853;28;20091;-59
2021/01/07 01:43:36;;;;;;;60.38;11.88;;;17.10;36.30;;;;;;5088195;28;20039;-61
2021/01/07 01:46:05;;;;;;;47.00;10.90;;;17.00;36.40;;;;;;5078264;28;20155;-61
2021/01/07 01:48:33;;;;;;;59.08;13.15;;;16.90;36.10;;;;;;5066685;28;20068;-61
2021/01/07 01:51:00;;;;;;;48.08;10.77;;;16.80;36.20;;;;;;5084217;28;20081;-61
2021/01/07 01:53:27;;;;;;;67.72;12.18;;;16.70;37.10;;;;;;5090380;28;20094;-60
2021/01/07 01:55:54;;;;;;;62.15;12.88;;;16.60;37.70;;;;;;5080252;28;20095;-58
2021/01/07 01:58:21;;;;;;;63.55;14.20;;;16.60;38.10;;;;;;5085075;28;20072;-63
2021/01/07 02:00:47;;;;;;;47.72;14.68;;;16.40;38.60;;;;;;5070781;28;20650;-61
2021/01/07 02:03:14;;;;;;;;;;;16.40;38.80;;;;;;5070479;28;20077;-60
2021/01/07 02:05:41;;;;;;;44.58;12.30;;;16.30;39.40;;;;;;5087896;28;19965;-61
2021/01/07 02:08:12;;;;;;;73.57;19.67;;;16.30;39.60;;;;;;5095454;28;20077;-59
2021/01/07 02:10:39;;;;;;;58.05;18.35;;;16.20;40.10;;;;;;5068021;28;20131;-58
2021/01/07 02:13:07;;;;;;;86.78;22.88;;;16.20;39.90;;;;;;5094153;28;20076;-60
2021/01/07 02:15:43;;;;;;;52.65;18.33;;;16.10;40.20;;;;;;5088754;28;20199;-59
2021/01/07 02:18:09;;;;;;;55.85;15.10;;;16.00;40.10;;;;;;5085167;28;20064;-59
2021/01/07 02:20:39;;;;;;;47.42;15.75;;;16.00;40.00;;;;;;5092140;28;20073;-60
2021/01/07 02:23:06;;;;;;;52.03;14.00;;;16.00;40.50;;;;;;5070718;28;20092;-60
2021/01/07 02:25:33;;;;;;;52.90;12.75;;;15.90;40.40;;;;;;5065242;28;20068;-60
2021/01/07 02:28:00;;;;;;;58.92;12.07;;;15.80;40.70;;;;;;5084346;28;20068;-60
2021/01/07 02:30:26;;;;;;;51.15;12.68;;;15.70;40.70;;;;;;5091651;28;20084;-61
2021/01/07 02:32:53;;;;;;;50.50;12.88;;;15.60;40.70;;;;;;5087393;28;20628;-59
2021/01/07 02:35:20;;;;;;;55.65;16.48;;;15.50;40.70;;;;;;5084470;28;20100;-60
2021/01/07 02:37:46;;;;;;;;;;;15.50;40.80;;;;;;5091139;28;20077;-59
2021/01/07 02:40:13;;;;;;;45.38;11.43;;;15.40;40.60;;;;;;5085597;28;19957;-59
2021/01/07 02:42:40;;;;;;;36.17;11.10;;;15.40;40.50;;;;;;5085631;28;20084;-61
2021/01/07 02:45:11;;;;;;;36.97;11.50;;;15.30;40.40;;;;;;5065535;28;20077;-58
2021/01/07 02:47:40;;;;;;;34.67;12.00;;;15.30;40.70;;;;;;5091258;28;20471;-60
2021/01/07 02:50:08;;;;;;;47.25;12.48;;;15.30;40.90;;;;;;5084417;28;20159;-60
2021/01/07 02:52:35;;;;;;;48.08;10.80;;;15.20;41.40;;;;;;5074057;28;20073;-59
2021/01/07 02:55:03;;;;;;;35.38;10.18;;;15.20;41.20;;;;;;5091153;28;20072;-60
2021/01/07 02:57:30;;;;;;;38.65;10.50;;;15.20;41.70;;;;;;5089835;28;20090;-61
2021/01/07 02:59:56;;;;;;;34.55;9.80;;;15.20;42.00;;;;;;5087270;28;20070;-60
2021/01/07 03:02:23;;;;;;;31.20;9.88;;;15.10;42.00;;;;;;5091733;28;20065;-60
2021/01/07 03:04:49;;;;;;;59.47;11.00;;;15.10;42.10;;;;;;5084193;28;20536;-62
2021/01/07 03:07:16;;;;;;;;;;;15.00;42.30;;;;;;5081451;28;20429;-59
2021/01/07 03:09:47;;;;;;;69.93;10.80;;;15.00;42.40;;;;;;5073054;28;20007;-60
2021/01/07 03:12:19;;;;;;;50.22;10.63;;;14.90;42.40;;;;;;5091287;28;20112;-60
2021/01/07 03:14:47;;;;;;;54.42;11.30;;;14.90;42.70;;;;;;5071767;28;20079;-61
2021/01/07 03:17:14;;;;;;;41.63;11.48;;;14.80;42.80;;;;;;5070848;28;20602;-62
2021/01/07 03:19:41;;;;;;;51.25;10.95;;;14.80;43.00;;;;;;5082435;28;20073;-60
2021/01/07 03:22:08;;;;;;;59.40;11.35;;;14.80;43.00;;;;;;5092678;28;20100;-62
2021/01/07 03:24:37;;;;;;;42.83;10.68;;;14.70;43.40;;;;;;5089584;28;20075;-59
2021/01/07 03:27:03;;;;;;;58.78;12.40;;;14.70;43.80;;;;;;5091289;28;20076;-59
2021/01/07 03:29:30;;;;;;;62.30;15.88;;;14.60;43.50;;;;;;5063084;28;20525;-58
2021/01/07 03:31:56;;;;;;;;;;;14.60;43.60;;;;;;5090905;28;20170;-60
2021/01/07 03:34:24;;;;;;;66.93;16.48;;;14.60;43.80;;;;;;5093690;28;19998;-60
2021/01/07 03:36:53;;;;;;;67.95;13.07;;;14.60;43.90;;;;;;5090305;28;20169;-61
2021/01/07 03:39:19;;;;;;;90.13;14.05;;;14.50;44.80;;;;;;5090858;28;20432;-60
2021/01/07 03:41:46;;;;;;;;;;;14.50;44.70;;;;;;5085419;28;20076;-60
2021/01/07 03:44:12;;;;;;;82.88;14.00;;;14.50;44.70;;;;;;5086773;28;20444;-62
2021/01/07 03:46:39;;;;;;;;;;;14.50;44.80;;;;;;5078675;28;20104;-61
2021/01/07 03:49:06;;;;;;;63.83;12.43;;;14.40;45.30;;;;;;5081580;28;19956;-59
2021/01/07 03:51:33;;;;;;;45.85;11.65;;;14.40;46.10;;;;;;5070003;28;20147;-57
2021/01/07 03:54:00;;;;;;;65.13;12.65;;;14.40;45.40;;;;;;5070724;28;20080;-60
2021/01/07 03:56:27;;;;;;;51.17;11.88;;;14.30;44.80;;;;;;5085736;28;20572;-59
2021/01/07 03:58:53;;;;;;;70.40;13.75;;;14.30;45.10;;;;;;5088548;28;20159;-62
2021/01/07 04:01:19;;;;;;;;;;;14.20;45.90;;;;;;5084774;28;20093;-59
2021/01/07 04:03:46;;;;;;;64.10;12.43;;;14.30;45.90;;;;;;5084074;28;20357;-60
2021/01/07 04:06:13;;;;;;;53.58;12.30;;;14.20;45.60;;;;;;5067842;28;20073;-58
2021/01/07 04:08:39;;;;;;;44.75;13.45;;;14.20;45.60;;;;;;5084149;28;20084;-58
2021/01/07 04:11:05;;;;;;;;;;;14.10;45.30;;;;;;5084367;28;20111;-58
2021/01/07 04:13:32;;;;;;;68.55;17.35;;;14.10;45.50;;;;;;5069605;28;19956;-58
2021/01/07 04:15:58;;;;;;;66.90;18.20;;;14.10;45.70;;;;;;5084543;28;20100;-59
2021/01/07 04:18:25;;;;;;;65.72;16.85;;;14.00;45.80;;;;;;5090662;28;20064;-54
2021/01/07 04:20:51;;;;;;;;;;;14.10;45.80;;;;;;5088433;28;20440;-59
2021/01/07 04:23:18;;;;;;;64.35;15.88;;;14.00;45.90;;;;;;5082186;28;19957;-59
2021/01/07 04:25:44;;;;;;;75.10;16.00;;;14.00;46.40;;;;;;5056050;28;20091;-60
2021/01/07 04:28:11;;;;;;;71.43;24.90;;;14.00;46.80;;;;;;5066619;28;20398;-58
2021/01/07 04:30:38;;;;;;;158.40;71.15;;;14.00;46.90;;;;;;5068625;28;20111;-56
2021/01/07 04:33:04;;;;;;;142.68;61.03;;;13.90;47.20;;;;;;5067631;28;20109;-58
2021/01/07 04:35:31;;;;;;;124.93;49.17;;;13.90;47.30;;;;;;5085789;28;20091;-59
2021/01/07 04:37:57;;;;;;;;;;;13.90;47.30;;;;;;5086390;28;20212;-60
2021/01/07 04:40:24;;;;;;;85.18;28.73;;;13.80;47.20;;;;;;5087895;28;19960;-59
2021/01/07 04:42:50;;;;;;;;;;;13.80;47.40;;;;;;5085595;28;20157;-58
2021/01/07 04:45:17;;;;;;;79.53;27.25;;;13.80;47.30;;;;;;5080808;28;19963;-58
2021/01/07 04:47:47;;;;;;;104.97;28.02;;;13.70;47.30;;;;;;5086272;28;20068;-57
2021/01/07 04:50:21;;;;;;;84.47;30.42;;;13.70;47.40;;;;;;5082471;28;20125;-62
2021/01/07 04:52:48;;;;;;;109.95;33.83;;;13.60;47.30;;;;;;5083379;28;20075;-61
2021/01/07 04:55:14;;;;;;;111.97;34.38;;;13.50;47.30;;;;;;5087409;28;20149;-59
2021/01/07 04:57:44;;;;;;;109.13;33.88;;;13.60;47.30;;;;;;5080536;28;20076;-59
2021/01/07 05:00:13;;;;;;;101.20;33.40;;;13.50;47.30;;;;;;5083817;28;20069;-58
2021/01/07 05:02:40;;;;;;;134.73;35.70;;;13.50;47.50;;;;;;5086689;28;20084;-58
2021/01/07 05:05:07;;;;;;;123.97;35.63;;;13.60;48.00;;;;;;5074806;28;20448;-59
2021/01/07 05:07:38;;;;;;;120.55;35.30;;;13.50;47.60;;;;;;5087317;28;20145;-58
2021/01/07 05:10:08;;;;;;;104.97;37.00;;;13.50;47.60;;;;;;5082187;28;20076;-56
2021/01/07 05:12:35;;;;;;;132.50;37.33;;;13.50;47.30;;;;;;5064808;28;20171;-59
2021/01/07 05:15:04;;;;;;;117.72;35.67;;;13.40;47.60;;;;;;5083037;28;20073;-59
2021/01/07 05:17:30;;;;;;;128.07;38.33;;;13.40;47.80;;;;;;5080258;28;20598;-54
2021/01/07 05:19:57;;;;;;;120.07;39.10;;;13.30;47.20;;;;;;5078331;28;20099;-58
2021/01/07 05:22:40;;;;;;;133.25;39.80;;;13.30;47.30;;;;;;5083754;28;20083;-58
2021/01/07 05:25:10;;;;;;;144.27;39.55;;;13.40;47.60;;;;;;5080753;28;20562;-56
2021/01/07 05:27:39;;;;;;;126.88;38.17;;;13.40;47.40;;;;;;5083124;28;20520;-55
2021/01/07 05:30:08;;;;;;;133.20;37.45;;;13.40;47.60;;;;;;5077867;28;20069;-59
2021/01/07 05:32:40;;;;;;;144.60;39.63;;;13.30;47.90;;;;;;5078033;28;20652;-58
2021/01/07 05:35:10;;;;;;;139.88;40.65;;;13.20;48.00;;;;;;5071907;28;20532;-58
2021/01/07 05:37:40;;;;;;;127.63;35.95;;;13.20;48.20;;;;;;5087354;28;20103;-59
2021/01/07 05:40:08;;;;;;;148.43;44.67;;;13.20;48.30;;;;;;5088738;28;20073;-57
2021/01/07 05:42:46;;;;;;;143.48;40.28;;;13.20;48.10;;;;;;5088726;28;20069;-59
2021/01/07 05:45:15;;;;;;;141.20;38.22;;;13.20;48.40;;;;;;5089757;28;20117;-60
2021/01/07 05:47:44;;;;;;;125.85;38.53;;;13.20;48.30;;;;;;5088901;28;20429;-58
2021/01/07 05:50:12;;;;;;;128.93;35.15;;;13.20;48.50;;;;;;5088232;28;20126;-60
2021/01/07 05:52:47;;;;;;;119.18;34.40;;;13.10;48.90;;;;;;5087751;28;21660;-55
2021/01/07 05:55:18;;;;;;;113.72;33.38;;;13.10;48.70;;;;;;5089307;28;20067;-59
2021/01/07 05:57:45;;;;;;;129.55;35.10;;;13.10;48.50;;;;;;5087523;28;20435;-59
2021/01/07 06:00:17;;;;;;;122.90;34.00;;;13.10;48.90;;;;;;5067829;28;20065;-58
2021/01/07 06:02:44;;;;;;;109.32;33.80;;;13.10;49.10;;;;;;5086873;28;20517;-59
2021/01/07 06:05:13;;;;;;;114.35;32.97;;;13.00;49.30;;;;;;5088690;28;20546;-58
2021/01/07 06:07:40;;;;;;;129.50;33.70;;;13.00;49.10;;;;;;5069661;28;20114;-58
2021/01/07 06:10:09;;;;;;;116.47;34.40;;;12.90;49.60;;;;;;5085295;28;20117;-59
2021/01/07 06:12:37;;;;;;;144.68;34.97;;;12.90;49.70;;;;;;5087113;28;20075;-59
2021/01/07 06:15:08;;;;;;;117.53;32.17;;;12.90;50.10;;;;;;5087598;28;20293;-60
2021/01/07 06:17:36;;;;;;;126.68;35.40;;;12.90;49.90;;;;;;5094125;28;20444;-58
2021/01/07 06:20:12;;;;;;;120.68;33.88;;;12.90;49.90;;;;;;5075411;28;20580;-56
2021/01/07 06:22:45;;;;;;;124.88;33.35;;;12.90;50.30;;;;;;5091501;28;20092;-61
2021/01/07 06:25:14;;;;;;;136.68;34.95;;;12.80;50.20;;;;;;5091423;28;20081;-56
2021/01/07 06:27:44;;;;;;;122.80;33.05;;;12.70;50.10;;;;;;5090692;28;20410;-58
2021/01/07 06:30:11;;;;;;;118.80;32.05;;;12.70;50.30;;;;;;5091603;28;21073;-56
2021/01/07 06:32:38;;;;;;;;;;;12.70;50.50;;;;;;5092452;28;20547;-58
2021/01/07 06:35:14;;;;;;;120.28;33.58;;;12.70;50.50;;;;;;5116760;27;19964;-56
2021/01/07 06:37:49;;;;;;;107.93;31.60;;;12.70;50.50;;;;;;5111531;28;20585;-56
2021/01/07 06:40:18;;;;;;;107.82;31.23;;;12.70;50.50;;;;;;5113264;27;20555;-59
2021/01/07 06:42:49;;;;;;;107.93;32.15;;;12.70;50.60;;;;;;5110417;27;20080;-60
2021/01/07 06:45:23;;;;;;;111.05;31.15;;;12.60;50.30;;;;;;5112182;28;20064;-59
2021/01/07 06:47:56;;;;;;;114.80;30.73;;;12.60;50.10;;;;;;5113868;27;20068;-58
2021/01/07 06:50:25;;;;;;;113.30;31.70;;;12.70;50.70;;;;;;5113253;28;20125;-57
2021/01/07 06:52:52;;;;;;;103.88;30.15;;;12.70;50.90;;;;;;5111904;28;20072;-60
2021/01/07 06:55:21;;;;;;;96.78;29.83;;;12.60;50.90;;;;;;5112410;27;20413;-60
2021/01/07 06:58:05;;;;;;;110.70;30.92;;;12.60;51.20;;;;;;5097748;28;20076;-55
2021/01/07 07:00:37;;;;;;;114.30;30.35;;;12.60;51.40;;;;;;5114957;27;20079;-59
2021/01/07 07:03:09;;;;;;;85.47;29.30;;;12.50;51.80;;;;;;5110591;27;20116;-58
2021/01/07 07:05:38;;;;;;;87.40;28.05;;;12.60;51.70;;;;;;5110636;28;20447;-58
2021/01/07 07:08:09;;;;;;;101.63;27.98;;;12.60;52.20;;;;;;5112966;27;20076;-58
2021/01/07 07:10:36;;;;;;;87.75;26.77;;;12.50;52.50;;;;;;5112487;28;20087;-60
2021/01/07 07:13:17;;;;;;;79.28;23.50;;;12.50;52.50;;;;;;5111743;28;20156;-61
2021/01/07 07:15:44;;;;;;;83.85;25.73;;;12.50;52.40;;;;;;5111781;28;20095;-59
2021/01/07 07:18:11;;;;;;;81.72;25.63;;;12.50;52.40;;;;;;5112882;27;20069;-55
2021/01/07 07:20:44;;;;;;;73.53;23.13;;;12.50;52.60;;;;;;5113328;27;20075;-59
2021/01/07 07:23:24;;;;;;;71.80;24.05;;;12.40;52.60;;;;;;5110815;28;20068;-58
2021/01/07 07:25:57;;;;;;;85.20;23.33;;;12.40;53.30;;;;;;5095010;28;20095;-59
2021/01/07 07:28:26;;;;;;;74.20;23.10;;;12.40;52.20;;;;;;5110451;28;20072;-59
2021/01/07 07:30:53;;;;;;;88.28;23.80;;;12.30;52.40;;;;;;5110057;27;20072;-58
2021/01/07 07:33:42;;;;;;;64.80;22.73;;;12.30;52.20;;;;;;5110713;27;20452;-59
2021/01/07 07:36:10;;;;;;;75.45;23.85;;;12.40;52.50;;;;;;5096752;28;20096;-57
2021/01/07 07:38:41;;;;;;;79.18;26.40;;;12.40;52.50;;;;;;5110862;27;20068;-59
2021/01/07 07:41:09;;;;;;;86.18;24.95;;;12.30;53.20;;;;;;5108575;28;20077;-60
2021/01/07 07:43:37;;;;;;;80.70;25.27;;;12.10;53.30;;;;;;5109851;27;20072;-59
2021/01/07 07:46:06;;;;;;;86.72;27.85;;;12.10;53.20;;;;;;5111131;27;20147;-59
2021/01/07 07:48:34;;;;;;;85.78;29.55;;;12.00;52.70;;;;;;5113557;27;20072;-58
2021/01/07 07:51:11;;;;;;;90.90;29.42;;;11.90;52.20;;;;;;5097969;27;20482;-58
2021/01/07 07:53:40;;;;;;;97.43;31.35;;;11.90;52.20;;;;;;5110197;27;20072;-59
2021/01/07 07:56:21;;;;;;;92.90;31.00;;;12.00;52.70;;;;;;5097367;28;20103;-59
2021/01/07 07:58:48;;;;;;;101.75;36.03;;;11.90;53.20;;;;;;5101536;27;20083;-58
2021/01/07 08:01:15;;;;;;;97.45;32.10;;;11.80;53.10;;;;;;5109766;27;20120;-59
2021/01/07 08:03:41;;;;;;;;;;;11.80;53.20;;;;;;5111571;28;20075;-60
2021/01/07 08:06:08;;;;;;;109.10;34.58;;;11.80;53.20;;;;;;5103306;27;19956;-59
2021/01/07 08:08:35;;;;;;;131.77;37.17;;;11.70;53.10;;;;;;5109357;27;20075;-57
2021/01/07 08:11:04;;;;;;;132.93;39.28;;;11.70;53.10;;;;;;5100434;28;20155;-59
2021/01/07 08:13:31;;;;;;;120.82;36.20;;;11.70;53.10;;;;;;5082072;28;20226;-60
2021/01/07 08:15:59;;;;;;;129.60;39.15;;;11.70;53.50;;;;;;5085566;28;20095;-58
2021/01/07 08:18:28;;;;;;;101.55;38.03;;;11.70;53.70;;;;;;5095573;28;20064;-57
2021/01/07 08:21:06;;;;;;;125.38;39.75;;;11.60;54.00;;;;;;5099023;27;20076;-59
2021/01/07 08:23:33;;;;;;;125.18;40.95;;;11.60;54.00;;;;;;5110405;28;20075;-59
2021/01/07 08:26:02;;;;;;;129.73;40.55;;;11.60;53.80;;;;;;5101695;27;20080;-58
2021/01/07 08:28:38;;;;;;;119.78;39.70;;;11.60;53.80;;;;;;5110838;27;20075;-57
2021/01/07 08:31:09;;;;;;;131.50;41.97;;;11.50;53.80;;;;;;5082897;27;20069;-57
2021/01/07 08:33:39;;;;;;;131.30;42.97;;;11.50;53.80;;;;;;5109671;28;20108;-55
2021/01/07 08:36:14;;;;;;;157.02;45.00;;;11.50;53.60;;;;;;5110053;27;20170;-59
2021/01/07 08:38:44;;;;;;;148.50;42.25;;;11.50;53.60;;;;;;5112906;27;20067;-59
2021/01/07 08:41:22;;;;;;;132.07;43.75;;;11.40;53.70;;;;;;5101986;27;20069;-59
2021/01/07 08:43:51;;;;;;;166.07;48.00;;;11.30;54.10;;;;;;5109952;27;20068;-55
2021/01/07 08:46:21;;;;;;;154.73;48.25;;;11.20;54.30;;;;;;5098515;27;20674;-58
2021/01/07 08:49:06;;;;;;;174.93;48.83;;;11.30;54.00;;;;;;5096587;28;20163;-59
2021/01/07 08:51:39;;;;;;;177.23;49.38;;;11.30;53.70;;;;;;5099344;27;20158;-58
2021/01/07 08:54:23;;;;;;;173.45;52.40;;;11.30;53.60;;;;;;5108968;27;20091;-58
2021/01/07 08:56:51;;;;;;;195.02;53.55;;;11.30;53.60;;;;;;5095443;28;20099;-58
2021/01/07 08:59:25;;;;;;;234.38;57.38;;;11.30;54.20;;;;;;5099290;28;20536;-59
2021/01/07 09:01:56;;;;;;;215.55;57.10;;;11.20;54.10;;;;;;5109009;27;20075;-57
2021/01/07 09:04:35;;;;;;;203.70;57.88;;;11.00;53.90;;;;;;5100050;27;20072;-58
2021/01/07 09:07:16;;;;;;;209.70;55.30;;;11.00;54.80;;;;;;5111956;27;20153;-59
2021/01/07 09:09:57;;;;;;;198.95;56.17;;;10.90;54.10;;;;;;5094891;28;20096;-59
2021/01/07 09:12:31;;;;;;;207.95;58.05;;;10.90;54.70;;;;;;5097194;27;20072;-58
2021/01/07 09:15:11;;;;;;;207.38;57.85;;;10.80;55.40;;;;;;5107275;28;20167;-55
2021/01/07 09:17:48;;;;;;;219.63;60.25;;;10.80;54.80;;;;;;5111603;27;20091;-57
2021/01/07 09:20:20;;;;;;;226.73;58.22;;;10.80;54.70;;;;;;5110874;27;20072;-58
2021/01/07 09:22:49;;;;;;;209.68;59.10;;;10.80;54.80;;;;;;5108369;28;20075;-57
2021/01/07 09:25:18;;;;;;;209.73;58.40;;;10.80;54.60;;;;;;5110252;27;20068;-59
2021/01/07 09:27:51;;;;;;;186.68;56.47;;;10.80;54.30;;;;;;5110140;27;20103;-55
2021/01/07 09:30:18;;;;;;;217.05;59.30;;;10.80;53.90;;;;;;5107670;28;20072;-59
2021/01/07 09:32:45;;;;;;;221.48;57.92;;;10.80;54.00;;;;;;5096986;27;20187;-59
2021/01/07 09:35:13;;;;;;;193.95;57.65;;;10.80;53.80;;;;;;5095094;28;20064;-58
2021/01/07 09:37:39;;;;;;;202.15;55.72;;;10.80;54.00;;;;;;5114650;27;21213;-57
2021/01/07 09:40:07;;;;;;;198.13;56.83;;;10.80;54.40;;;;;;5109209;27;20078;-54
2021/01/07 09:42:35;;;;;;;188.10;56.63;;;10.70;54.20;;;;;;5107969;27;20111;-57
2021/01/07 09:45:04;;;;;;;186.07;53.50;;;10.70;54.30;;;;;;5110029;27;20060;-58
2021/01/07 09:47:31;;;;;;;184.27;56.03;;;10.60;54.10;;;;;;5111255;27;20143;-56
2021/01/07 09:49:58;;;;;;;;;;;10.40;54.10;;;;;;5107043;28;20581;-55
2021/01/07 09:52:25;;;;;;;189.57;56.85;;;10.40;54.00;;;;;;5110432;27;19956;-57
2021/01/07 09:54:52;;;;;;;190.80;56.22;;;10.40;54.10;;;;;;5110150;27;20082;-54
2021/01/07 09:57:19;;;;;;;190.73;55.38;;;10.50;53.90;;;;;;5108489;28;20092;-55
2021/01/07 09:59:45;;;;;;;;;;;10.60;53.70;;;;;;5107733;28;20080;-58
2021/01/07 10:02:13;;;;;;;183.25;53.40;;;10.60;54.00;;;;;;5113120;27;19956;-59
2021/01/07 10:04:44;;;;;;;199.18;54.53;;;10.60;54.50;;;;;;5108252;28;20176;-60
2021/01/07 10:07:12;;;;;;;174.35;54.50;;;10.50;53.30;;;;;;5109900;27;20073;-59
2021/01/07 10:09:38;;;;;;;189.57;53.55;;;10.50;53.50;;;;;;5109142;28;20524;-59
2021/01/07 10:12:05;;;;;;;176.05;53.15;;;10.50;53.30;;;;;;5107332;28;20092;-57
2021/01/07 10:14:33;;;;;;;179.60;54.78;;;10.50;53.10;;;;;;5108807;28;20075;-57
2021/01/07 10:17:05;;;;;;;174.65;53.13;;;10.40;53.10;;;;;;5108946;28;20131;-58
2021/01/07 10:19:36;;;;;;;175.75;52.92;;;10.50;53.40;;;;;;5109286;28;20159;-57
2021/01/07 10:22:15;;;;;;;179.23;52.22;;;10.50;53.50;;;;;;5108838;28;20176;-59
2021/01/07 10:24:46;;;;;;;180.55;50.53;;;10.50;53.80;;;;;;5097745;28;20064;-58
2021/01/07 10:27:17;;;;;;;159.50;46.53;;;10.50;52.90;;;;;;5105201;28;20076;-55
2021/01/07 10:29:45;;;;;;;146.60;46.22;;;10.50;52.40;;;;;;5107049;28;20121;-57
2021/01/07 10:32:14;;;;;;;159.30;47.83;;;10.50;52.60;;;;;;5109804;28;20080;-58
2021/01/07 10:34:44;;;;;;;141.15;42.60;;;10.60;52.30;;;;;;5088664;28;20081;-57
2021/01/07 10:37:12;;;;;;;144.68;40.65;;;10.50;52.10;;;;;;5080397;28;20093;-56
2021/01/07 10:39:41;;;;;;;132.93;41.33;;;10.50;51.80;;;;;;5077241;28;20073;-58
2021/01/07 10:42:13;;;;;;;130.63;39.22;;;10.50;51.90;;;;;;5076002;28;20084;-55
2021/01/07 10:44:41;;;;;;;125.72;37.25;;;10.50;51.80;;;;;;5073853;28;20194;-59
2021/01/07 10:47:10;;;;;;;111.28;36.45;;;10.50;51.60;;;;;;5077442;28;21372;-57
2021/01/07 10:49:38;;;;;;;130.07;36.22;;;10.50;51.90;;;;;;5087002;28;20072;-58
2021/01/07 10:52:07;;;;;;;104.03;35.08;;;10.40;51.40;;;;;;5082373;28;20072;-56
2021/01/07 10:54:58;;;;;;;116.85;35.55;;;10.50;51.40;;;;;;5085908;28;20069;-56
2021/01/07 10:57:52;;;;;;;123.07;34.88;;;10.40;52.00;;;;;;5084754;28;20127;-59
2021/01/07 11:00:24;;;;;;;111.32;32.70;;;10.40;51.70;;;;;;5079188;28;20083;-59
2021/01/07 11:03:42;;;;;;;94.22;30.52;;;10.30;51.10;;;;;;5090216;28;20083;-57
2021/01/07 11:06:10;;;;;;;104.13;31.25;;;10.30;51.50;;;;;;5076872;28;20092;-58
2021/01/07 11:08:52;;;;;;;102.53;31.77;;;10.30;51.40;;;;;;5077170;28;20543;-58
2021/01/07 11:11:28;;;;;;;113.85;31.67;;;10.30;51.30;;;;;;5079308;28;20073;-58
2021/01/07 11:14:07;;;;;;;102.55;33.30;;;10.30;51.20;;;;;;5078261;28;20083;-58
2021/01/07 11:16:57;;;;;;;83.03;30.90;;;10.20;51.00;;;;;;5093127;28;20110;-59
2021/01/07 11:19:26;;;;;;;117.47;31.33;;;10.20;51.50;;;;;;5086984;28;20073;-57
2021/01/07 11:22:02;;;;;;;97.45;31.08;;;10.20;51.70;;;;;;5084598;28;20134;-56
2021/01/07 11:24:29;;;;;;;104.53;29.98;;;10.20;51.90;;;;;;5084547;28;20532;-56
2021/01/07 11:26:57;;;;;;;92.90;29.98;;;10.20;51.90;;;;;;5071831;28;20605;-55
2021/01/07 11:29:25;;;;;;;95.00;32.53;;;10.20;51.80;;;;;;5079017;28;20126;-58
2021/01/07 11:31:53;;;;;;;95.90;31.90;;;10.10;52.10;;;;;;5090777;28;20072;-55
2021/01/07 11:34:21;;;;;;;101.78;33.35;;;10.10;52.40;;;;;;5087166;28;20501;-58
2021/01/07 11:36:54;;;;;;;97.68;33.28;;;10.00;52.60;;;;;;5085218;28;20107;-54
2021/01/07 11:39:28;;;;;;;104.95;34.90;;;10.10;52.20;;;;;;5084989;28;20077;-56
2021/01/07 11:42:06;;;;;;;91.63;33.40;;;10.10;52.10;;;;;;5084780;28;20079;-56
2021/01/07 11:44:42;;;;;;;106.78;34.17;;;10.10;51.80;;;;;;5083218;28;20068;-56
2021/01/07 11:47:11;;;;;;;83.90;32.53;;;10.10;51.60;;;;;;5070482;28;20083;-57
2021/01/07 11:49:41;;;;;;;100.32;32.13;;;10.10;52.00;;;;;;5088081;28;20088;-57
2021/01/07 11:52:09;;;;;;;88.95;32.80;;;10.10;52.00;;;;;;5085689;28;20107;-56
2021/01/07 11:54:40;;;;;;;84.32;32.05;;;10.00;52.20;;;;;;5085474;28;20084;-56
2021/01/07 11:57:08;;;;;;;93.15;32.35;;;9.90;52.90;;;;;;5084627;28;20557;-56
2021/01/07 11:59:38;;;;;;;89.68;30.90;;;9.90;53.50;;;;;;5064728;28;20160;-54
2021/01/07 12:02:12;;;;;;;86.10;30.75;;;9.90;52.50;;;;;;5081262;28;20152;-57
2021/01/07 12:04:41;;;;;;;87.97;32.33;;;9.90;52.40;;;;;;5084193;28;20139;-59
2021/01/07 12:07:37;;;;;;;84.47;31.35;;;9.90;53.00;;;;;;5087129;28;20073;-59
2021/01/07 12:10:05;;;;;;;93.22;31.10;;;9.70;53.00;;;;;;5035935;28;20083;-57
2021/01/07 12:12:44;;;;;;;84.35;29.70;;;9.70;53.10;;;;;;5083997;28;20424;-58
2021/01/07 12:15:18;;;;;;;98.18;28.40;;;9.70;53.30;;;;;;5065294;28;20076;-57
2021/01/07 12:17:44;;;;;;;86.82;27.30;;;9.70;53.20;;;;;;5072154;28;20093;-59
2021/01/07 12:20:10;;;;;;;;;;;9.70;53.40;;;;;;5083989;28;20406;-59
2021/01/07 12:22:39;;;;;;;73.97;21.40;;;9.60;53.10;;;;;;5064746;28;19960;-55
2021/01/07 12:25:06;;;;;;;71.57;20.92;;;9.60;53.30;;;;;;5065109;28;20163;-60
2021/01/07 12:27:35;;;;;;;63.17;19.75;;;9.60;53.10;;;;;;5086160;28;20081;-58
2021/01/07 12:30:04;;;;;;;55.08;18.58;;;9.60;52.90;;;;;;5081553;28;20083;-59
2021/01/07 12:32:32;;;;;;;56.42;17.90;;;9.50;53.10;;;;;;5084845;28;20085;-57
2021/01/07 12:35:28;;;;;;;59.95;17.48;;;9.40;54.00;;;;;;5084450;28;20414;-55
2021/01/07 12:38:03;;;;;;;51.05;16.98;;;9.50;53.80;;;;;;5083493;28;20081;-59
2021/01/07 12:40:34;;;;;;;48.83;17.15;;;9.50;53.60;;;;;;5082954;28;20079;-54
2021/01/07 12:43:03;;;;;;;46.13;16.05;;;9.30;53.60;;;;;;5084967;28;20073;-58